Terminal Aerodrome Forecast
Issued by NWS

Home | Current Version | Previous Version | Text Only | Print | Product List | Glossary Off
Versions: 1 2 3 4 5 6 7 8 9 10 11 12 13 14 15 16 17 18 19 20 21 22

000
FTUS41 KCLE 222300
TAFFDY
TAF
KFDY 222340Z 2300/2324 20012KT P6SM BKN040 OVC060
     FM230900 21010KT 5SM -SHRA OVC022
     FM231400 18012G20KT P6SM VCSH OVC035
     FM232100 12012KT 4SM -SHRA OVC018=

USA.gov is the U.S. government's official web portal to all federal, state and local government web resources and services.